Dawson, North Dakota
Current Conditions -  °F | °C
As of 8:52 PM on Sunday 21 Dec 2014 (Local Time) from KBIS Reporting Station
Haze Haze  
Wind Chill: 22°   Ceiling: 200
Heat Index: 29°   Visibility: 2.5mi
Dew Point: 29°   Wind: 7mph
Humidity: 100%   Direction: 150°SSE
Pressure: 29.46"   Gusts: NA
Location:  46.87°N, 99.75°W
Report Text: KBIS 220252Z 15006KT 2 1/2SM BR OVC002 M02/M02 A2946 RMK AO2 SLP998 T10171017 50005
Loading
Personal Weather Stations






























Interactive Weather Map New forecast layout! Learn more

10-Day Weather Forecast

Advertisements
Track Severe Weather on mobile